sensor_id;sensor_type;location;lat;lon;timestamp;P1;durP1;ratioP1;P2;durP2;ratioP2
4696;SDS011;2362;50.780;0.292;2022-12-18T00:02:18;53.33;;;21.10;;
4696;SDS011;2362;50.780;0.292;2022-12-18T00:04:44;50.13;;;21.45;;
4696;SDS011;2362;50.780;0.292;2022-12-18T00:07:10;45.30;;;20.50;;
4696;SDS011;2362;50.780;0.292;2022-12-18T00:09:36;47.05;;;20.73;;
4696;SDS011;2362;50.780;0.292;2022-12-18T00:12:01;57.20;;;20.60;;
4696;SDS011;2362;50.780;0.292;2022-12-18T00:14:27;48.75;;;19.83;;
4696;SDS011;2362;50.780;0.292;2022-12-18T00:16:53;52.75;;;18.50;;
4696;SDS011;2362;50.780;0.292;2022-12-18T00:19:18;44.42;;;19.17;;
4696;SDS011;2362;50.780;0.292;2022-12-18T00:21:44;58.95;;;20.95;;
4696;SDS011;2362;50.780;0.292;2022-12-18T00:24:10;55.15;;;19.08;;
4696;SDS011;2362;50.780;0.292;2022-12-18T00:26:37;45.00;;;18.95;;
4696;SDS011;2362;50.780;0.292;2022-12-18T00:29:08;43.10;;;17.48;;
4696;SDS011;2362;50.780;0.292;2022-12-18T00:31:36;42.38;;;18.58;;
4696;SDS011;2362;50.780;0.292;2022-12-18T00:34:03;40.88;;;16.77;;
4696;SDS011;2362;50.780;0.292;2022-12-18T00:36:30;42.38;;;18.10;;
4696;SDS011;2362;50.780;0.292;2022-12-18T00:38:59;47.60;;;17.67;;
4696;SDS011;2362;50.780;0.292;2022-12-18T00:41:26;40.72;;;19.00;;
4696;SDS011;2362;50.780;0.292;2022-12-18T00:44:11;43.85;;;17.15;;
4696;SDS011;2362;50.780;0.292;2022-12-18T00:46:39;47.67;;;18.33;;
4696;SDS011;2362;50.780;0.292;2022-12-18T00:49:05;43.00;;;17.08;;
4696;SDS011;2362;50.780;0.292;2022-12-18T00:51:31;40.47;;;16.70;;
4696;SDS011;2362;50.780;0.292;2022-12-18T00:53:57;39.97;;;15.75;;
4696;SDS011;2362;50.780;0.292;2022-12-18T00:56:23;41.70;;;16.08;;
4696;SDS011;2362;50.780;0.292;2022-12-18T00:58:49;45.85;;;15.60;;
4696;SDS011;2362;50.780;0.292;2022-12-18T01:01:15;32.47;;;13.77;;
4696;SDS011;2362;50.780;0.292;2022-12-18T01:03:41;38.78;;;14.15;;
4696;SDS011;2362;50.780;0.292;2022-12-18T01:06:07;33.17;;;13.73;;
4696;SDS011;2362;50.780;0.292;2022-12-18T01:08:34;31.63;;;13.00;;
4696;SDS011;2362;50.780;0.292;2022-12-18T01:11:01;32.00;;;11.80;;
4696;SDS011;2362;50.780;0.292;2022-12-18T01:13:32;38.13;;;11.80;;
4696;SDS011;2362;50.780;0.292;2022-12-18T01:15:58;27.45;;;11.15;;
4696;SDS011;2362;50.780;0.292;2022-12-18T01:18:24;26.83;;;10.70;;
4696;SDS011;2362;50.780;0.292;2022-12-18T01:20:49;25.27;;;10.90;;
4696;SDS011;2362;50.780;0.292;2022-12-18T01:23:15;25.63;;;10.13;;
4696;SDS011;2362;50.780;0.292;2022-12-18T01:25:40;39.03;;;11.20;;
4696;SDS011;2362;50.780;0.292;2022-12-18T01:28:06;31.98;;;10.70;;
4696;SDS011;2362;50.780;0.292;2022-12-18T01:30:32;27.15;;;12.20;;
4696;SDS011;2362;50.780;0.292;2022-12-18T01:32:58;32.40;;;12.18;;
4696;SDS011;2362;50.780;0.292;2022-12-18T01:35:23;28.90;;;12.65;;
4696;SDS011;2362;50.780;0.292;2022-12-18T01:37:49;27.52;;;11.70;;
4696;SDS011;2362;50.780;0.292;2022-12-18T01:40:18;29.40;;;10.02;;
4696;SDS011;2362;50.780;0.292;2022-12-18T01:42:44;47.10;;;11.30;;
4696;SDS011;2362;50.780;0.292;2022-12-18T01:50:43;36.95;;;12.93;;
4696;SDS011;2362;50.780;0.292;2022-12-18T01:55:43;39.88;;;12.38;;
4696;SDS011;2362;50.780;0.292;2022-12-18T01:58:15;28.23;;;11.15;;
4696;SDS011;2362;50.780;0.292;2022-12-18T02:00:42;33.00;;;12.68;;
4696;SDS011;2362;50.780;0.292;2022-12-18T02:03:33;30.30;;;12.48;;
4696;SDS011;2362;50.780;0.292;2022-12-18T02:08:59;34.90;;;13.00;;
4696;SDS011;2362;50.780;0.292;2022-12-18T02:28:27;32.13;;;11.98;;
4696;SDS011;2362;50.780;0.292;2022-12-18T02:30:59;43.08;;;12.10;;
4696;SDS011;2362;50.780;0.292;2022-12-18T02:33:29;40.95;;;13.07;;
4696;SDS011;2362;50.780;0.292;2022-12-18T02:35:57;34.28;;;12.25;;
4696;SDS011;2362;50.780;0.292;2022-12-18T02:38:25;30.13;;;11.50;;
4696;SDS011;2362;50.780;0.292;2022-12-18T02:40:52;30.98;;;10.98;;
4696;SDS011;2362;50.780;0.292;2022-12-18T02:43:19;33.05;;;11.35;;
4696;SDS011;2362;50.780;0.292;2022-12-18T02:45:52;29.65;;;13.35;;
4696;SDS011;2362;50.780;0.292;2022-12-18T02:48:24;28.10;;;12.05;;
4696;SDS011;2362;50.780;0.292;2022-12-18T02:53:41;30.33;;;11.20;;
4696;SDS011;2362;50.780;0.292;2022-12-18T02:56:25;29.45;;;12.07;;
4696;SDS011;2362;50.780;0.292;2022-12-18T02:58:59;43.38;;;12.70;;
4696;SDS011;2362;50.780;0.292;2022-12-18T03:07:08;30.15;;;11.70;;
4696;SDS011;2362;50.780;0.292;2022-12-18T03:09:38;28.77;;;11.40;;
4696;SDS011;2362;50.780;0.292;2022-12-18T03:12:18;29.75;;;11.57;;
4696;SDS011;2362;50.780;0.292;2022-12-18T03:15:10;32.20;;;11.88;;
4696;SDS011;2362;50.780;0.292;2022-12-18T03:17:40;31.73;;;11.95;;
4696;SDS011;2362;50.780;0.292;2022-12-18T03:20:14;43.83;;;13.18;;
4696;SDS011;2362;50.780;0.292;2022-12-18T03:22:42;32.67;;;12.70;;
4696;SDS011;2362;50.780;0.292;2022-12-18T03:25:13;28.65;;;12.25;;
4696;SDS011;2362;50.780;0.292;2022-12-18T03:27:42;29.95;;;11.23;;
4696;SDS011;2362;50.780;0.292;2022-12-18T03:30:12;27.08;;;11.10;;
4696;SDS011;2362;50.780;0.292;2022-12-18T03:32:41;27.45;;;11.52;;
4696;SDS011;2362;50.780;0.292;2022-12-18T03:35:11;39.63;;;12.60;;
4696;SDS011;2362;50.780;0.292;2022-12-18T03:38:08;34.47;;;12.45;;
4696;SDS011;2362;50.780;0.292;2022-12-18T03:40:56;36.25;;;12.30;;
4696;SDS011;2362;50.780;0.292;2022-12-18T03:47:41;33.90;;;11.93;;
4696;SDS011;2362;50.780;0.292;2022-12-18T03:52:26;32.25;;;12.10;;
4696;SDS011;2362;50.780;0.292;2022-12-18T03:55:00;29.55;;;13.60;;
4696;SDS011;2362;50.780;0.292;2022-12-18T03:57:28;27.25;;;13.02;;
4696;SDS011;2362;50.780;0.292;2022-12-18T03:59:57;30.63;;;10.93;;
4696;SDS011;2362;50.780;0.292;2022-12-18T04:02:36;34.25;;;11.38;;
4696;SDS011;2362;50.780;0.292;2022-12-18T04:05:04;30.30;;;11.02;;
4696;SDS011;2362;50.780;0.292;2022-12-18T04:07:32;28.90;;;11.35;;
4696;SDS011;2362;50.780;0.292;2022-12-18T04:09:58;30.67;;;11.32;;
4696;SDS011;2362;50.780;0.292;2022-12-18T04:12:29;22.63;;;10.10;;
4696;SDS011;2362;50.780;0.292;2022-12-18T04:14:55;33.30;;;10.10;;
4696;SDS011;2362;50.780;0.292;2022-12-18T04:17:21;28.92;;;9.68;;
4696;SDS011;2362;50.780;0.292;2022-12-18T04:19:47;26.40;;;10.10;;
4696;SDS011;2362;50.780;0.292;2022-12-18T04:22:13;24.73;;;10.38;;
4696;SDS011;2362;50.780;0.292;2022-12-18T04:24:39;35.17;;;11.23;;
4696;SDS011;2362;50.780;0.292;2022-12-18T04:27:05;22.17;;;10.25;;
4696;SDS011;2362;50.780;0.292;2022-12-18T04:29:31;29.73;;;10.98;;
4696;SDS011;2362;50.780;0.292;2022-12-18T04:31:57;33.20;;;12.30;;
4696;SDS011;2362;50.780;0.292;2022-12-18T04:34:23;30.63;;;11.40;;
4696;SDS011;2362;50.780;0.292;2022-12-18T04:36:49;29.25;;;11.45;;
4696;SDS011;2362;50.780;0.292;2022-12-18T04:39:14;27.38;;;10.65;;
4696;SDS011;2362;50.780;0.292;2022-12-18T04:41:40;32.00;;;11.15;;
4696;SDS011;2362;50.780;0.292;2022-12-18T04:44:06;29.10;;;9.80;;
4696;SDS011;2362;50.780;0.292;2022-12-18T04:49:23;26.65;;;11.50;;
4696;SDS011;2362;50.780;0.292;2022-12-18T04:51:49;33.95;;;12.35;;
4696;SDS011;2362;50.780;0.292;2022-12-18T04:54:15;32.80;;;11.43;;
4696;SDS011;2362;50.780;0.292;2022-12-18T04:56:41;36.55;;;11.95;;
4696;SDS011;2362;50.780;0.292;2022-12-18T04:59:06;32.78;;;11.43;;
4696;SDS011;2362;50.780;0.292;2022-12-18T05:01:33;24.92;;;11.02;;
4696;SDS011;2362;50.780;0.292;2022-12-18T05:03:59;29.40;;;10.43;;
4696;SDS011;2362;50.780;0.292;2022-12-18T05:06:25;26.50;;;11.27;;
4696;SDS011;2362;50.780;0.292;2022-12-18T05:08:50;39.03;;;12.30;;
4696;SDS011;2362;50.780;0.292;2022-12-18T05:11:16;27.33;;;10.93;;
4696;SDS011;2362;50.780;0.292;2022-12-18T05:13:45;30.40;;;13.52;;
4696;SDS011;2362;50.780;0.292;2022-12-18T05:16:11;42.20;;;13.52;;
4696;SDS011;2362;50.780;0.292;2022-12-18T05:18:38;37.33;;;12.68;;
4696;SDS011;2362;50.780;0.292;2022-12-18T05:21:04;31.83;;;11.50;;
4696;SDS011;2362;50.780;0.292;2022-12-18T05:23:30;30.23;;;10.85;;
4696;SDS011;2362;50.780;0.292;2022-12-18T05:25:59;29.08;;;12.60;;
4696;SDS011;2362;50.780;0.292;2022-12-18T05:28:26;35.15;;;12.02;;
4696;SDS011;2362;50.780;0.292;2022-12-18T05:30:55;35.33;;;14.63;;
4696;SDS011;2362;50.780;0.292;2022-12-18T05:33:26;37.47;;;11.77;;
4696;SDS011;2362;50.780;0.292;2022-12-18T05:35:54;31.05;;;10.07;;
4696;SDS011;2362;50.780;0.292;2022-12-18T05:38:22;28.00;;;11.20;;
4696;SDS011;2362;50.780;0.292;2022-12-18T05:40:49;37.50;;;11.63;;
4696;SDS011;2362;50.780;0.292;2022-12-18T05:43:16;27.13;;;11.88;;
4696;SDS011;2362;50.780;0.292;2022-12-18T05:45:43;29.08;;;10.65;;
4696;SDS011;2362;50.780;0.292;2022-12-18T05:48:08;31.95;;;11.73;;
4696;SDS011;2362;50.780;0.292;2022-12-18T05:50:35;30.58;;;11.82;;
4696;SDS011;2362;50.780;0.292;2022-12-18T05:53:02;32.13;;;11.98;;
4696;SDS011;2362;50.780;0.292;2022-12-18T05:55:28;36.03;;;11.48;;
4696;SDS011;2362;50.780;0.292;2022-12-18T05:57:54;36.20;;;11.20;;
4696;SDS011;2362;50.780;0.292;2022-12-18T06:00:20;26.88;;;11.68;;
4696;SDS011;2362;50.780;0.292;2022-12-18T06:02:46;28.45;;;12.02;;
4696;SDS011;2362;50.780;0.292;2022-12-18T06:05:12;28.67;;;10.32;;
4696;SDS011;2362;50.780;0.292;2022-12-18T06:07:38;31.70;;;12.80;;
4696;SDS011;2362;50.780;0.292;2022-12-18T06:10:03;28.75;;;11.20;;
4696;SDS011;2362;50.780;0.292;2022-12-18T06:12:30;24.77;;;10.65;;
4696;SDS011;2362;50.780;0.292;2022-12-18T06:15:21;27.40;;;11.57;;
4696;SDS011;2362;50.780;0.292;2022-12-18T06:17:47;42.13;;;11.95;;
4696;SDS011;2362;50.780;0.292;2022-12-18T06:20:12;26.30;;;11.35;;
4696;SDS011;2362;50.780;0.292;2022-12-18T06:22:38;35.63;;;10.90;;
4696;SDS011;2362;50.780;0.292;2022-12-18T06:25:04;39.92;;;12.45;;
4696;SDS011;2362;50.780;0.292;2022-12-18T06:27:31;35.75;;;12.10;;
4696;SDS011;2362;50.780;0.292;2022-12-18T06:29:58;30.52;;;12.23;;
4696;SDS011;2362;50.780;0.292;2022-12-18T06:32:24;28.55;;;10.98;;
4696;SDS011;2362;50.780;0.292;2022-12-18T06:34:50;25.65;;;11.65;;
4696;SDS011;2362;50.780;0.292;2022-12-18T06:37:16;20.83;;;10.10;;
4696;SDS011;2362;50.780;0.292;2022-12-18T06:39:41;28.15;;;11.50;;
4696;SDS011;2362;50.780;0.292;2022-12-18T06:42:07;29.65;;;11.45;;
4696;SDS011;2362;50.780;0.292;2022-12-18T06:44:33;34.35;;;12.55;;
4696;SDS011;2362;50.780;0.292;2022-12-18T06:46:58;32.55;;;13.57;;
4696;SDS011;2362;50.780;0.292;2022-12-18T06:49:24;34.80;;;12.82;;
4696;SDS011;2362;50.780;0.292;2022-12-18T06:51:50;33.08;;;12.90;;
4696;SDS011;2362;50.780;0.292;2022-12-18T06:54:16;32.67;;;12.90;;
4696;SDS011;2362;50.780;0.292;2022-12-18T06:56:41;35.83;;;13.82;;
4696;SDS011;2362;50.780;0.292;2022-12-18T06:59:07;35.53;;;13.00;;
4696;SDS011;2362;50.780;0.292;2022-12-18T07:01:33;33.35;;;12.68;;
4696;SDS011;2362;50.780;0.292;2022-12-18T07:03:58;42.15;;;13.93;;
4696;SDS011;2362;50.780;0.292;2022-12-18T07:06:25;34.30;;;13.63;;
4696;SDS011;2362;50.780;0.292;2022-12-18T07:08:51;33.90;;;14.02;;
4696;SDS011;2362;50.780;0.292;2022-12-18T07:11:18;44.28;;;13.20;;
4696;SDS011;2362;50.780;0.292;2022-12-18T07:13:44;38.60;;;13.68;;
4696;SDS011;2362;50.780;0.292;2022-12-18T07:16:13;41.33;;;15.00;;
4696;SDS011;2362;50.780;0.292;2022-12-18T07:18:41;46.20;;;15.55;;
4696;SDS011;2362;50.780;0.292;2022-12-18T07:21:10;37.13;;;14.77;;
4696;SDS011;2362;50.780;0.292;2022-12-18T07:23:38;41.88;;;17.17;;
4696;SDS011;2362;50.780;0.292;2022-12-18T07:26:05;34.50;;;14.43;;
4696;SDS011;2362;50.780;0.292;2022-12-18T07:28:32;33.08;;;12.23;;
4696;SDS011;2362;50.780;0.292;2022-12-18T07:31:02;41.92;;;13.95;;
4696;SDS011;2362;50.780;0.292;2022-12-18T07:33:32;39.03;;;15.15;;
4696;SDS011;2362;50.780;0.292;2022-12-18T07:35:59;43.38;;;15.63;;
4696;SDS011;2362;50.780;0.292;2022-12-18T07:38:25;34.85;;;15.60;;
4696;SDS011;2362;50.780;0.292;2022-12-18T07:40:51;32.80;;;14.77;;
4696;SDS011;2362;50.780;0.292;2022-12-18T07:43:17;33.63;;;14.55;;
4696;SDS011;2362;50.780;0.292;2022-12-18T07:45:42;43.03;;;16.83;;
4696;SDS011;2362;50.780;0.292;2022-12-18T07:48:09;40.78;;;16.92;;
4696;SDS011;2362;50.780;0.292;2022-12-18T07:50:35;38.95;;;17.42;;
4696;SDS011;2362;50.780;0.292;2022-12-18T07:53:01;34.55;;;14.88;;
4696;SDS011;2362;50.780;0.292;2022-12-18T07:55:29;46.97;;;17.38;;
4696;SDS011;2362;50.780;0.292;2022-12-18T07:57:56;39.60;;;17.85;;
4696;SDS011;2362;50.780;0.292;2022-12-18T08:00:22;40.20;;;15.32;;
4696;SDS011;2362;50.780;0.292;2022-12-18T08:02:48;44.70;;;17.08;;
4696;SDS011;2362;50.780;0.292;2022-12-18T08:05:15;50.05;;;18.92;;
4696;SDS011;2362;50.780;0.292;2022-12-18T08:07:40;49.15;;;16.85;;
4696;SDS011;2362;50.780;0.292;2022-12-18T08:10:06;51.30;;;19.17;;
4696;SDS011;2362;50.780;0.292;2022-12-18T08:12:32;47.53;;;18.17;;
4696;SDS011;2362;50.780;0.292;2022-12-18T08:14:58;44.35;;;17.25;;
4696;SDS011;2362;50.780;0.292;2022-12-18T08:17:24;49.92;;;19.73;;
4696;SDS011;2362;50.780;0.292;2022-12-18T08:19:49;51.80;;;20.00;;
4696;SDS011;2362;50.780;0.292;2022-12-18T08:22:15;45.58;;;19.88;;
4696;SDS011;2362;50.780;0.292;2022-12-18T08:24:41;55.10;;;17.88;;
4696;SDS011;2362;50.780;0.292;2022-12-18T08:27:08;48.55;;;21.70;;
4696;SDS011;2362;50.780;0.292;2022-12-18T08:29:33;53.60;;;20.63;;
4696;SDS011;2362;50.780;0.292;2022-12-18T08:31:59;45.17;;;19.73;;
4696;SDS011;2362;50.780;0.292;2022-12-18T08:34:25;64.60;;;20.63;;
4696;SDS011;2362;50.780;0.292;2022-12-18T08:36:53;50.58;;;22.90;;
4696;SDS011;2362;50.780;0.292;2022-12-18T08:39:18;52.58;;;21.20;;
4696;SDS011;2362;50.780;0.292;2022-12-18T08:41:48;46.60;;;22.02;;
4696;SDS011;2362;50.780;0.292;2022-12-18T08:44:33;54.05;;;24.42;;
4696;SDS011;2362;50.780;0.292;2022-12-18T08:47:05;58.97;;;23.48;;
4696;SDS011;2362;50.780;0.292;2022-12-18T08:49:32;43.10;;;19.38;;
4696;SDS011;2362;50.780;0.292;2022-12-18T08:51:58;55.20;;;21.58;;
4696;SDS011;2362;50.780;0.292;2022-12-18T08:54:25;51.78;;;19.40;;
4696;SDS011;2362;50.780;0.292;2022-12-18T08:56:51;55.28;;;25.40;;
4696;SDS011;2362;50.780;0.292;2022-12-18T08:59:17;59.88;;;25.30;;
4696;SDS011;2362;50.780;0.292;2022-12-18T09:01:44;64.28;;;23.52;;
4696;SDS011;2362;50.780;0.292;2022-12-18T09:04:10;52.42;;;24.10;;
4696;SDS011;2362;50.780;0.292;2022-12-18T09:06:37;60.50;;;23.90;;
4696;SDS011;2362;50.780;0.292;2022-12-18T09:09:27;64.88;;;26.58;;
4696;SDS011;2362;50.780;0.292;2022-12-18T09:11:53;63.83;;;26.23;;
4696;SDS011;2362;50.780;0.292;2022-12-18T09:14:19;60.10;;;24.20;;
4696;SDS011;2362;50.780;0.292;2022-12-18T09:16:45;61.88;;;24.63;;
4696;SDS011;2362;50.780;0.292;2022-12-18T09:19:10;57.90;;;24.05;;
4696;SDS011;2362;50.780;0.292;2022-12-18T09:21:37;64.63;;;24.15;;
4696;SDS011;2362;50.780;0.292;2022-12-18T09:24:04;63.92;;;24.95;;
4696;SDS011;2362;50.780;0.292;2022-12-18T09:26:30;65.82;;;26.45;;
4696;SDS011;2362;50.780;0.292;2022-12-18T09:28:56;61.85;;;25.17;;
4696;SDS011;2362;50.780;0.292;2022-12-18T09:31:22;57.75;;;25.20;;
4696;SDS011;2362;50.780;0.292;2022-12-18T09:33:49;69.15;;;27.73;;
4696;SDS011;2362;50.780;0.292;2022-12-18T09:36:16;78.78;;;28.48;;
4696;SDS011;2362;50.780;0.292;2022-12-18T09:38:42;84.78;;;27.73;;
4696;SDS011;2362;50.780;0.292;2022-12-18T09:44:03;61.08;;;27.23;;
4696;SDS011;2362;50.780;0.292;2022-12-18T09:49:44;62.75;;;26.63;;
4696;SDS011;2362;50.780;0.292;2022-12-18T09:52:19;56.10;;;27.55;;
4696;SDS011;2362;50.780;0.292;2022-12-18T09:54:53;62.55;;;25.77;;
4696;SDS011;2362;50.780;0.292;2022-12-18T09:57:31;61.25;;;26.15;;
4696;SDS011;2362;50.780;0.292;2022-12-18T10:00:15;60.92;;;27.13;;
4696;SDS011;2362;50.780;0.292;2022-12-18T10:02:45;67.90;;;28.10;;
4696;SDS011;2362;50.780;0.292;2022-12-18T10:12:54;65.30;;;25.90;;
4696;SDS011;2362;50.780;0.292;2022-12-18T10:15:36;52.63;;;24.42;;
4696;SDS011;2362;50.780;0.292;2022-12-18T10:18:29;58.25;;;23.60;;
4696;SDS011;2362;50.780;0.292;2022-12-18T10:21:18;55.38;;;23.20;;
4696;SDS011;2362;50.780;0.292;2022-12-18T10:23:51;53.40;;;23.43;;
4696;SDS011;2362;50.780;0.292;2022-12-18T10:26:38;62.80;;;24.42;;
4696;SDS011;2362;50.780;0.292;2022-12-18T10:29:11;63.53;;;25.00;;
4696;SDS011;2362;50.780;0.292;2022-12-18T10:31:38;59.63;;;24.55;;
4696;SDS011;2362;50.780;0.292;2022-12-18T10:34:04;61.72;;;23.63;;
4696;SDS011;2362;50.780;0.292;2022-12-18T10:36:59;55.78;;;24.20;;
4696;SDS011;2362;50.780;0.292;2022-12-18T10:39:31;55.03;;;22.10;;
4696;SDS011;2362;50.780;0.292;2022-12-18T10:42:09;53.47;;;23.83;;
4696;SDS011;2362;50.780;0.292;2022-12-18T10:44:38;56.63;;;23.88;;
4696;SDS011;2362;50.780;0.292;2022-12-18T10:47:05;66.45;;;22.35;;
4696;SDS011;2362;50.780;0.292;2022-12-18T10:49:36;54.55;;;25.25;;
4696;SDS011;2362;50.780;0.292;2022-12-18T10:52:11;68.95;;;23.58;;
4696;SDS011;2362;50.780;0.292;2022-12-18T10:54:46;62.50;;;25.27;;
4696;SDS011;2362;50.780;0.292;2022-12-18T10:57:29;57.35;;;25.75;;
4696;SDS011;2362;50.780;0.292;2022-12-18T10:59:58;60.03;;;25.33;;
4696;SDS011;2362;50.780;0.292;2022-12-18T11:04:59;64.00;;;26.83;;
4696;SDS011;2362;50.780;0.292;2022-12-18T11:07:24;52.83;;;24.52;;
4696;SDS011;2362;50.780;0.292;2022-12-18T11:09:59;62.40;;;26.05;;
4696;SDS011;2362;50.780;0.292;2022-12-18T11:12:26;55.50;;;23.83;;
4696;SDS011;2362;50.780;0.292;2022-12-18T11:14:54;60.50;;;25.60;;
4696;SDS011;2362;50.780;0.292;2022-12-18T11:20:30;62.25;;;26.17;;
4696;SDS011;2362;50.780;0.292;2022-12-18T11:23:05;62.15;;;27.05;;
4696;SDS011;2362;50.780;0.292;2022-12-18T11:25:36;65.53;;;24.98;;
4696;SDS011;2362;50.780;0.292;2022-12-18T11:28:04;47.65;;;23.10;;
4696;SDS011;2362;50.780;0.292;2022-12-18T11:30:34;62.55;;;25.52;;
4696;SDS011;2362;50.780;0.292;2022-12-18T11:33:18;63.28;;;24.45;;
4696;SDS011;2362;50.780;0.292;2022-12-18T11:38:41;69.20;;;27.02;;
4696;SDS011;2362;50.780;0.292;2022-12-18T11:41:19;60.90;;;25.15;;
4696;SDS011;2362;50.780;0.292;2022-12-18T11:43:52;59.15;;;24.45;;
4696;SDS011;2362;50.780;0.292;2022-12-18T11:46:34;58.25;;;25.65;;
4696;SDS011;2362;50.780;0.292;2022-12-18T11:49:04;69.63;;;26.63;;
4696;SDS011;2362;50.780;0.292;2022-12-18T11:51:41;58.47;;;24.83;;
4696;SDS011;2362;50.780;0.292;2022-12-18T11:54:14;75.68;;;27.00;;
4696;SDS011;2362;50.780;0.292;2022-12-18T11:56:44;63.15;;;25.80;;
4696;SDS011;2362;50.780;0.292;2022-12-18T11:59:35;55.47;;;27.33;;
4696;SDS011;2362;50.780;0.292;2022-12-18T12:02:18;59.40;;;25.42;;
4696;SDS011;2362;50.780;0.292;2022-12-18T12:10:42;61.30;;;26.35;;
4696;SDS011;2362;50.780;0.292;2022-12-18T12:21:58;58.10;;;24.02;;
4696;SDS011;2362;50.780;0.292;2022-12-18T12:30:31;79.93;;;27.02;;
4696;SDS011;2362;50.780;0.292;2022-12-18T12:35:52;57.05;;;24.77;;
4696;SDS011;2362;50.780;0.292;2022-12-18T12:38:30;57.45;;;23.98;;
4696;SDS011;2362;50.780;0.292;2022-12-18T12:41:12;47.22;;;21.83;;
4696;SDS011;2362;50.780;0.292;2022-12-18T12:43:59;62.97;;;24.83;;
4696;SDS011;2362;50.780;0.292;2022-12-18T12:46:30;48.83;;;22.55;;
4696;SDS011;2362;50.780;0.292;2022-12-18T12:49:02;69.03;;;22.65;;
4696;SDS011;2362;50.780;0.292;2022-12-18T12:51:34;51.08;;;22.70;;
4696;SDS011;2362;50.780;0.292;2022-12-18T12:54:02;59.90;;;23.15;;
4696;SDS011;2362;50.780;0.292;2022-12-18T12:56:36;53.45;;;24.13;;
4696;SDS011;2362;50.780;0.292;2022-12-18T12:59:13;72.35;;;21.95;;
4696;SDS011;2362;50.780;0.292;2022-12-18T13:01:58;62.20;;;21.17;;
4696;SDS011;2362;50.780;0.292;2022-12-18T13:04:56;53.90;;;22.25;;
4696;SDS011;2362;50.780;0.292;2022-12-18T13:07:29;58.08;;;23.60;;
4696;SDS011;2362;50.780;0.292;2022-12-18T13:13:02;62.72;;;22.65;;
4696;SDS011;2362;50.780;0.292;2022-12-18T13:20:35;63.67;;;23.05;;
4696;SDS011;2362;50.780;0.292;2022-12-18T13:25:56;44.63;;;21.08;;
4696;SDS011;2362;50.780;0.292;2022-12-18T13:33:43;77.15;;;22.58;;
4696;SDS011;2362;50.780;0.292;2022-12-18T13:36:24;48.08;;;22.08;;
4696;SDS011;2362;50.780;0.292;2022-12-18T13:39:09;51.88;;;19.50;;
4696;SDS011;2362;50.780;0.292;2022-12-18T13:41:38;45.40;;;19.58;;
4696;SDS011;2362;50.780;0.292;2022-12-18T13:44:39;49.40;;;19.55;;
4696;SDS011;2362;50.780;0.292;2022-12-18T13:47:07;48.53;;;18.65;;
4696;SDS011;2362;50.780;0.292;2022-12-18T13:49:53;55.63;;;19.92;;
4696;SDS011;2362;50.780;0.292;2022-12-18T13:52:24;64.65;;;23.85;;
4696;SDS011;2362;50.780;0.292;2022-12-18T13:54:54;56.28;;;21.70;;
4696;SDS011;2362;50.780;0.292;2022-12-18T13:57:28;56.15;;;23.35;;
4696;SDS011;2362;50.780;0.292;2022-12-18T13:59:54;60.30;;;22.02;;
4696;SDS011;2362;50.780;0.292;2022-12-18T14:02:22;41.90;;;21.33;;
4696;SDS011;2362;50.780;0.292;2022-12-18T14:04:52;76.45;;;23.35;;
4696;SDS011;2362;50.780;0.292;2022-12-18T14:07:19;72.90;;;24.90;;
4696;SDS011;2362;50.780;0.292;2022-12-18T14:09:51;52.25;;;21.65;;
4696;SDS011;2362;50.780;0.292;2022-12-18T14:12:26;56.55;;;22.80;;
4696;SDS011;2362;50.780;0.292;2022-12-18T14:20:46;57.17;;;19.17;;
4696;SDS011;2362;50.780;0.292;2022-12-18T14:26:00;47.10;;;20.83;;
4696;SDS011;2362;50.780;0.292;2022-12-18T14:28:27;62.47;;;21.73;;
4696;SDS011;2362;50.780;0.292;2022-12-18T14:30:53;76.25;;;21.70;;
4696;SDS011;2362;50.780;0.292;2022-12-18T14:33:21;61.58;;;22.00;;
4696;SDS011;2362;50.780;0.292;2022-12-18T14:36:02;52.47;;;18.70;;
4696;SDS011;2362;50.780;0.292;2022-12-18T14:38:30;71.00;;;21.30;;
4696;SDS011;2362;50.780;0.292;2022-12-18T14:43:31;72.45;;;24.88;;
4696;SDS011;2362;50.780;0.292;2022-12-18T14:45:59;72.78;;;24.33;;
4696;SDS011;2362;50.780;0.292;2022-12-18T14:50:56;67.82;;;24.70;;
4696;SDS011;2362;50.780;0.292;2022-12-18T14:53:36;81.90;;;26.60;;
4696;SDS011;2362;50.780;0.292;2022-12-18T14:58:43;71.60;;;25.87;;
4696;SDS011;2362;50.780;0.292;2022-12-18T15:01:17;76.75;;;25.25;;
4696;SDS011;2362;50.780;0.292;2022-12-18T15:03:48;73.53;;;24.95;;
4696;SDS011;2362;50.780;0.292;2022-12-18T15:08:54;72.25;;;27.90;;
4696;SDS011;2362;50.780;0.292;2022-12-18T15:11:26;78.10;;;26.35;;
4696;SDS011;2362;50.780;0.292;2022-12-18T15:14:23;82.03;;;27.50;;
4696;SDS011;2362;50.780;0.292;2022-12-18T15:16:59;84.97;;;29.17;;
4696;SDS011;2362;50.780;0.292;2022-12-18T15:19:37;85.18;;;29.02;;
4696;SDS011;2362;50.780;0.292;2022-12-18T15:22:14;69.03;;;28.38;;
4696;SDS011;2362;50.780;0.292;2022-12-18T15:24:47;95.28;;;28.50;;
4696;SDS011;2362;50.780;0.292;2022-12-18T15:27:24;81.05;;;28.40;;
4696;SDS011;2362;50.780;0.292;2022-12-18T15:32:33;91.05;;;30.85;;
4696;SDS011;2362;50.780;0.292;2022-12-18T15:37:39;72.63;;;28.13;;
4696;SDS011;2362;50.780;0.292;2022-12-18T15:40:05;92.75;;;29.50;;
4696;SDS011;2362;50.780;0.292;2022-12-18T15:42:36;98.07;;;30.38;;
4696;SDS011;2362;50.780;0.292;2022-12-18T15:45:20;91.20;;;30.33;;
4696;SDS011;2362;50.780;0.292;2022-12-18T15:47:46;103.47;;;30.40;;
4696;SDS011;2362;50.780;0.292;2022-12-18T15:50:12;84.47;;;29.88;;
4696;SDS011;2362;50.780;0.292;2022-12-18T15:52:41;84.47;;;28.55;;
4696;SDS011;2362;50.780;0.292;2022-12-18T15:55:15;106.07;;;30.85;;
4696;SDS011;2362;50.780;0.292;2022-12-18T15:58:05;93.55;;;30.08;;
4696;SDS011;2362;50.780;0.292;2022-12-18T16:00:36;77.22;;;28.33;;
4696;SDS011;2362;50.780;0.292;2022-12-18T16:03:03;101.55;;;31.67;;
4696;SDS011;2362;50.780;0.292;2022-12-18T16:05:30;86.03;;;28.38;;
4696;SDS011;2362;50.780;0.292;2022-12-18T16:07:56;79.90;;;29.38;;
4696;SDS011;2362;50.780;0.292;2022-12-18T16:10:23;96.40;;;27.63;;
4696;SDS011;2362;50.780;0.292;2022-12-18T16:12:50;87.32;;;33.15;;
4696;SDS011;2362;50.780;0.292;2022-12-18T16:15:16;101.60;;;30.35;;
4696;SDS011;2362;50.780;0.292;2022-12-18T16:17:42;78.43;;;27.00;;
4696;SDS011;2362;50.780;0.292;2022-12-18T16:20:12;91.28;;;29.27;;
4696;SDS011;2362;50.780;0.292;2022-12-18T16:22:40;87.53;;;30.75;;
4696;SDS011;2362;50.780;0.292;2022-12-18T16:25:08;103.95;;;32.58;;
4696;SDS011;2362;50.780;0.292;2022-12-18T16:27:41;96.35;;;29.58;;
4696;SDS011;2362;50.780;0.292;2022-12-18T16:30:08;91.20;;;28.23;;
4696;SDS011;2362;50.780;0.292;2022-12-18T16:32:38;88.63;;;28.35;;
4696;SDS011;2362;50.780;0.292;2022-12-18T16:35:04;81.80;;;28.02;;
4696;SDS011;2362;50.780;0.292;2022-12-18T16:37:30;72.25;;;26.88;;
4696;SDS011;2362;50.780;0.292;2022-12-18T16:39:56;97.85;;;33.00;;
4696;SDS011;2362;50.780;0.292;2022-12-18T16:42:21;94.03;;;29.05;;
4696;SDS011;2362;50.780;0.292;2022-12-18T16:44:48;92.93;;;28.52;;
4696;SDS011;2362;50.780;0.292;2022-12-18T16:47:14;85.05;;;27.67;;
4696;SDS011;2362;50.780;0.292;2022-12-18T16:49:41;89.53;;;27.02;;
4696;SDS011;2362;50.780;0.292;2022-12-18T16:52:09;89.65;;;28.42;;
4696;SDS011;2362;50.780;0.292;2022-12-18T16:54:35;79.03;;;29.58;;
4696;SDS011;2362;50.780;0.292;2022-12-18T16:57:26;97.75;;;32.22;;
4696;SDS011;2362;50.780;0.292;2022-12-18T16:59:54;96.57;;;29.83;;
4696;SDS011;2362;50.780;0.292;2022-12-18T17:02:24;93.72;;;30.05;;
4696;SDS011;2362;50.780;0.292;2022-12-18T17:04:54;81.93;;;28.10;;
4696;SDS011;2362;50.780;0.292;2022-12-18T17:07:21;95.50;;;27.55;;
4696;SDS011;2362;50.780;0.292;2022-12-18T17:09:47;84.65;;;28.73;;
4696;SDS011;2362;50.780;0.292;2022-12-18T17:12:14;75.85;;;28.10;;
4696;SDS011;2362;50.780;0.292;2022-12-18T17:14:40;102.10;;;29.48;;
4696;SDS011;2362;50.780;0.292;2022-12-18T17:17:06;93.97;;;27.90;;